sensor_id;sensor_type;location;lat;lon;timestamp;P1;durP1;ratioP1;P2;durP2;ratioP2
8580;SDS011;4328;48.622;9.230;2023-01-23T00:01:26;11.00;;;9.80;;
8580;SDS011;4328;48.622;9.230;2023-01-23T00:03:53;11.37;;;9.63;;
8580;SDS011;4328;48.622;9.230;2023-01-23T00:06:20;12.00;;;10.30;;
8580;SDS011;4328;48.622;9.230;2023-01-23T00:08:46;12.57;;;10.17;;
8580;SDS011;4328;48.622;9.230;2023-01-23T00:11:15;11.87;;;9.87;;
8580;SDS011;4328;48.622;9.230;2023-01-23T00:13:42;11.97;;;10.17;;
8580;SDS011;4328;48.622;9.230;2023-01-23T00:16:09;12.37;;;10.27;;
8580;SDS011;4328;48.622;9.230;2023-01-23T00:18:35;11.70;;;9.87;;
8580;SDS011;4328;48.622;9.230;2023-01-23T00:21:02;11.50;;;10.27;;
8580;SDS011;4328;48.622;9.230;2023-01-23T00:23:29;15.40;;;10.63;;
8580;SDS011;4328;48.622;9.230;2023-01-23T00:26:00;12.83;;;10.50;;
8580;SDS011;4328;48.622;9.230;2023-01-23T00:28:28;12.43;;;9.93;;
8580;SDS011;4328;48.622;9.230;2023-01-23T00:31:00;10.90;;;9.77;;
8580;SDS011;4328;48.622;9.230;2023-01-23T00:33:27;11.27;;;9.73;;
8580;SDS011;4328;48.622;9.230;2023-01-23T00:35:53;12.33;;;10.57;;
8580;SDS011;4328;48.622;9.230;2023-01-23T00:38:19;12.97;;;9.73;;
8580;SDS011;4328;48.622;9.230;2023-01-23T00:40:46;12.63;;;10.23;;
8580;SDS011;4328;48.622;9.230;2023-01-23T00:43:12;13.17;;;10.50;;
8580;SDS011;4328;48.622;9.230;2023-01-23T00:45:40;11.80;;;9.63;;
8580;SDS011;4328;48.622;9.230;2023-01-23T00:48:06;12.00;;;10.43;;
8580;SDS011;4328;48.622;9.230;2023-01-23T00:50:33;11.60;;;9.70;;
8580;SDS011;4328;48.622;9.230;2023-01-23T00:52:59;11.63;;;10.17;;
8580;SDS011;4328;48.622;9.230;2023-01-23T00:55:26;12.13;;;9.50;;
8580;SDS011;4328;48.622;9.230;2023-01-23T00:57:52;13.10;;;10.13;;
8580;SDS011;4328;48.622;9.230;2023-01-23T01:00:18;12.47;;;9.83;;
8580;SDS011;4328;48.622;9.230;2023-01-23T01:02:46;10.90;;;8.93;;
8580;SDS011;4328;48.622;9.230;2023-01-23T01:05:12;12.33;;;10.30;;
8580;SDS011;4328;48.622;9.230;2023-01-23T01:07:39;11.57;;;9.63;;
8580;SDS011;4328;48.622;9.230;2023-01-23T01:10:06;11.90;;;10.13;;
8580;SDS011;4328;48.622;9.230;2023-01-23T01:12:33;12.70;;;10.17;;
8580;SDS011;4328;48.622;9.230;2023-01-23T01:14:59;11.03;;;9.80;;
8580;SDS011;4328;48.622;9.230;2023-01-23T01:17:26;11.53;;;9.43;;
8580;SDS011;4328;48.622;9.230;2023-01-23T01:19:54;12.67;;;10.37;;
8580;SDS011;4328;48.622;9.230;2023-01-23T01:22:20;11.70;;;9.93;;
8580;SDS011;4328;48.622;9.230;2023-01-23T01:24:46;12.23;;;9.87;;
8580;SDS011;4328;48.622;9.230;2023-01-23T01:27:13;12.67;;;9.93;;
8580;SDS011;4328;48.622;9.230;2023-01-23T01:29:39;12.10;;;10.00;;
8580;SDS011;4328;48.622;9.230;2023-01-23T01:32:05;11.40;;;9.60;;
8580;SDS011;4328;48.622;9.230;2023-01-23T01:34:32;10.77;;;9.27;;
8580;SDS011;4328;48.622;9.230;2023-01-23T01:37:00;10.87;;;8.90;;
8580;SDS011;4328;48.622;9.230;2023-01-23T01:39:26;11.60;;;9.57;;
8580;SDS011;4328;48.622;9.230;2023-01-23T01:41:52;12.00;;;9.63;;
8580;SDS011;4328;48.622;9.230;2023-01-23T01:44:19;11.50;;;9.50;;
8580;SDS011;4328;48.622;9.230;2023-01-23T01:46:46;13.40;;;9.70;;
8580;SDS011;4328;48.622;9.230;2023-01-23T01:49:13;12.50;;;9.70;;
8580;SDS011;4328;48.622;9.230;2023-01-23T01:51:41;10.40;;;8.93;;
8580;SDS011;4328;48.622;9.230;2023-01-23T01:54:12;12.07;;;9.60;;
8580;SDS011;4328;48.622;9.230;2023-01-23T01:56:42;11.43;;;8.90;;
8580;SDS011;4328;48.622;9.230;2023-01-23T01:59:09;10.93;;;9.10;;
8580;SDS011;4328;48.622;9.230;2023-01-23T02:01:36;11.70;;;9.83;;
8580;SDS011;4328;48.622;9.230;2023-01-23T02:04:03;13.43;;;10.20;;
8580;SDS011;4328;48.622;9.230;2023-01-23T02:06:29;11.13;;;9.33;;
8580;SDS011;4328;48.622;9.230;2023-01-23T02:08:57;12.57;;;10.40;;
8580;SDS011;4328;48.622;9.230;2023-01-23T02:11:27;11.03;;;9.47;;
8580;SDS011;4328;48.622;9.230;2023-01-23T02:13:53;10.27;;;9.20;;
8580;SDS011;4328;48.622;9.230;2023-01-23T02:16:23;11.27;;;9.77;;
8580;SDS011;4328;48.622;9.230;2023-01-23T02:18:50;11.13;;;9.40;;
8580;SDS011;4328;48.622;9.230;2023-01-23T02:21:19;11.53;;;9.43;;
8580;SDS011;4328;48.622;9.230;2023-01-23T02:23:52;13.37;;;10.27;;
8580;SDS011;4328;48.622;9.230;2023-01-23T02:26:22;12.00;;;9.67;;
8580;SDS011;4328;48.622;9.230;2023-01-23T02:28:50;12.33;;;8.83;;
8580;SDS011;4328;48.622;9.230;2023-01-23T02:31:17;10.90;;;9.23;;
8580;SDS011;4328;48.622;9.230;2023-01-23T02:33:45;12.80;;;10.07;;
8580;SDS011;4328;48.622;9.230;2023-01-23T02:36:12;10.37;;;8.53;;
8580;SDS011;4328;48.622;9.230;2023-01-23T02:38:40;12.13;;;9.70;;
8580;SDS011;4328;48.622;9.230;2023-01-23T02:41:09;11.50;;;9.27;;
8580;SDS011;4328;48.622;9.230;2023-01-23T02:43:38;11.30;;;9.07;;
8580;SDS011;4328;48.622;9.230;2023-01-23T02:46:06;10.90;;;9.33;;
8580;SDS011;4328;48.622;9.230;2023-01-23T02:48:33;10.27;;;9.17;;
8580;SDS011;4328;48.622;9.230;2023-01-23T02:50:59;10.87;;;9.30;;
8580;SDS011;4328;48.622;9.230;2023-01-23T02:53:26;11.47;;;9.20;;
8580;SDS011;4328;48.622;9.230;2023-01-23T02:55:53;12.40;;;9.00;;
8580;SDS011;4328;48.622;9.230;2023-01-23T02:58:20;11.63;;;9.20;;
8580;SDS011;4328;48.622;9.230;2023-01-23T03:01:05;12.00;;;10.03;;
8580;SDS011;4328;48.622;9.230;2023-01-23T03:03:31;11.53;;;9.63;;
8580;SDS011;4328;48.622;9.230;2023-01-23T03:05:58;13.07;;;10.10;;
8580;SDS011;4328;48.622;9.230;2023-01-23T03:08:28;12.07;;;9.60;;
8580;SDS011;4328;48.622;9.230;2023-01-23T03:10:57;11.57;;;8.90;;
8580;SDS011;4328;48.622;9.230;2023-01-23T03:13:24;10.63;;;9.00;;
8580;SDS011;4328;48.622;9.230;2023-01-23T03:15:50;11.07;;;8.67;;
8580;SDS011;4328;48.622;9.230;2023-01-23T03:18:19;10.33;;;8.40;;
8580;SDS011;4328;48.622;9.230;2023-01-23T03:20:45;11.03;;;9.03;;
8580;SDS011;4328;48.622;9.230;2023-01-23T03:23:11;10.37;;;8.63;;
8580;SDS011;4328;48.622;9.230;2023-01-23T03:25:41;11.50;;;9.20;;
8580;SDS011;4328;48.622;9.230;2023-01-23T03:28:07;11.30;;;9.13;;
8580;SDS011;4328;48.622;9.230;2023-01-23T03:30:55;12.27;;;9.50;;
8580;SDS011;4328;48.622;9.230;2023-01-23T03:33:21;12.73;;;10.07;;
8580;SDS011;4328;48.622;9.230;2023-01-23T03:35:48;10.27;;;8.70;;
8580;SDS011;4328;48.622;9.230;2023-01-23T03:38:14;11.40;;;9.00;;
8580;SDS011;4328;48.622;9.230;2023-01-23T03:40:43;10.73;;;8.93;;
8580;SDS011;4328;48.622;9.230;2023-01-23T03:43:29;11.87;;;9.40;;
8580;SDS011;4328;48.622;9.230;2023-01-23T03:45:55;11.97;;;8.17;;
8580;SDS011;4328;48.622;9.230;2023-01-23T03:48:23;10.53;;;8.87;;
8580;SDS011;4328;48.622;9.230;2023-01-23T03:50:49;10.97;;;9.40;;
8580;SDS011;4328;48.622;9.230;2023-01-23T03:53:16;10.43;;;9.10;;
8580;SDS011;4328;48.622;9.230;2023-01-23T03:55:43;13.73;;;9.70;;
8580;SDS011;4328;48.622;9.230;2023-01-23T03:58:09;12.80;;;9.60;;
8580;SDS011;4328;48.622;9.230;2023-01-23T04:00:36;11.47;;;9.97;;
8580;SDS011;4328;48.622;9.230;2023-01-23T04:03:02;11.07;;;9.43;;
8580;SDS011;4328;48.622;9.230;2023-01-23T04:05:30;13.07;;;10.30;;
8580;SDS011;4328;48.622;9.230;2023-01-23T04:07:56;10.83;;;8.77;;
8580;SDS011;4328;48.622;9.230;2023-01-23T04:10:23;11.83;;;8.80;;
8580;SDS011;4328;48.622;9.230;2023-01-23T04:12:49;11.93;;;9.83;;
8580;SDS011;4328;48.622;9.230;2023-01-23T04:15:15;11.90;;;9.63;;
8580;SDS011;4328;48.622;9.230;2023-01-23T04:17:42;12.57;;;9.30;;
8580;SDS011;4328;48.622;9.230;2023-01-23T04:20:09;12.37;;;9.63;;
8580;SDS011;4328;48.622;9.230;2023-01-23T04:22:36;11.87;;;9.73;;
8580;SDS011;4328;48.622;9.230;2023-01-23T04:25:03;11.57;;;9.27;;
8580;SDS011;4328;48.622;9.230;2023-01-23T04:27:30;12.17;;;9.60;;
8580;SDS011;4328;48.622;9.230;2023-01-23T04:29:56;11.70;;;10.03;;
8580;SDS011;4328;48.622;9.230;2023-01-23T04:32:23;13.03;;;10.33;;
8580;SDS011;4328;48.622;9.230;2023-01-23T04:34:49;11.93;;;9.73;;
8580;SDS011;4328;48.622;9.230;2023-01-23T04:37:16;13.33;;;10.40;;
8580;SDS011;4328;48.622;9.230;2023-01-23T04:39:44;12.23;;;10.33;;
8580;SDS011;4328;48.622;9.230;2023-01-23T04:42:10;12.93;;;9.63;;
8580;SDS011;4328;48.622;9.230;2023-01-23T04:44:36;13.30;;;10.13;;
8580;SDS011;4328;48.622;9.230;2023-01-23T04:47:03;13.00;;;9.97;;
8580;SDS011;4328;48.622;9.230;2023-01-23T04:49:29;11.27;;;9.63;;
8580;SDS011;4328;48.622;9.230;2023-01-23T04:51:56;13.83;;;10.53;;
8580;SDS011;4328;48.622;9.230;2023-01-23T04:54:22;11.50;;;8.97;;
8580;SDS011;4328;48.622;9.230;2023-01-23T04:56:50;12.53;;;9.97;;
8580;SDS011;4328;48.622;9.230;2023-01-23T04:59:16;15.40;;;10.03;;
8580;SDS011;4328;48.622;9.230;2023-01-23T05:01:43;11.00;;;9.53;;
8580;SDS011;4328;48.622;9.230;2023-01-23T05:04:09;11.27;;;9.17;;
8580;SDS011;4328;48.622;9.230;2023-01-23T05:06:35;13.00;;;10.03;;
8580;SDS011;4328;48.622;9.230;2023-01-23T05:09:02;11.23;;;9.30;;
8580;SDS011;4328;48.622;9.230;2023-01-23T05:11:29;12.07;;;9.80;;
8580;SDS011;4328;48.622;9.230;2023-01-23T05:13:57;12.87;;;10.03;;
8580;SDS011;4328;48.622;9.230;2023-01-23T05:16:23;12.43;;;9.90;;
8580;SDS011;4328;48.622;9.230;2023-01-23T05:18:50;12.03;;;9.90;;
8580;SDS011;4328;48.622;9.230;2023-01-23T05:21:16;12.67;;;10.20;;
8580;SDS011;4328;48.622;9.230;2023-01-23T05:23:42;13.23;;;10.03;;
8580;SDS011;4328;48.622;9.230;2023-01-23T05:26:09;11.47;;;8.90;;
8580;SDS011;4328;48.622;9.230;2023-01-23T05:28:35;10.80;;;8.90;;
8580;SDS011;4328;48.622;9.230;2023-01-23T05:31:03;12.73;;;9.90;;
8580;SDS011;4328;48.622;9.230;2023-01-23T05:33:29;12.73;;;10.07;;
8580;SDS011;4328;48.622;9.230;2023-01-23T05:35:57;13.60;;;9.93;;
8580;SDS011;4328;48.622;9.230;2023-01-23T05:38:24;13.83;;;9.70;;
8580;SDS011;4328;48.622;9.230;2023-01-23T05:40:50;14.93;;;11.00;;
8580;SDS011;4328;48.622;9.230;2023-01-23T05:43:16;13.93;;;10.90;;
8580;SDS011;4328;48.622;9.230;2023-01-23T05:45:43;14.33;;;10.67;;
8580;SDS011;4328;48.622;9.230;2023-01-23T05:48:10;13.93;;;10.73;;
8580;SDS011;4328;48.622;9.230;2023-01-23T05:50:37;13.13;;;10.17;;
8580;SDS011;4328;48.622;9.230;2023-01-23T05:53:03;15.40;;;11.10;;
8580;SDS011;4328;48.622;9.230;2023-01-23T05:55:29;14.63;;;11.20;;
8580;SDS011;4328;48.622;9.230;2023-01-23T05:57:56;14.87;;;10.53;;
8580;SDS011;4328;48.622;9.230;2023-01-23T06:00:22;13.13;;;10.00;;
8580;SDS011;4328;48.622;9.230;2023-01-23T06:02:48;13.30;;;10.63;;
8580;SDS011;4328;48.622;9.230;2023-01-23T06:05:16;14.70;;;10.80;;
8580;SDS011;4328;48.622;9.230;2023-01-23T06:07:43;12.77;;;10.10;;
8580;SDS011;4328;48.622;9.230;2023-01-23T06:10:09;14.47;;;10.40;;
8580;SDS011;4328;48.622;9.230;2023-01-23T06:12:35;14.60;;;10.87;;
8580;SDS011;4328;48.622;9.230;2023-01-23T06:15:02;14.33;;;10.73;;
8580;SDS011;4328;48.622;9.230;2023-01-23T06:17:28;12.80;;;10.33;;
8580;SDS011;4328;48.622;9.230;2023-01-23T06:19:55;15.47;;;10.93;;
8580;SDS011;4328;48.622;9.230;2023-01-23T06:22:24;14.97;;;10.30;;
8580;SDS011;4328;48.622;9.230;2023-01-23T06:24:50;14.03;;;10.60;;
8580;SDS011;4328;48.622;9.230;2023-01-23T06:27:17;14.03;;;10.90;;
8580;SDS011;4328;48.622;9.230;2023-01-23T06:29:43;14.10;;;10.50;;
8580;SDS011;4328;48.622;9.230;2023-01-23T06:32:10;14.07;;;10.27;;
8580;SDS011;4328;48.622;9.230;2023-01-23T06:34:36;15.23;;;10.87;;
8580;SDS011;4328;48.622;9.230;2023-01-23T06:37:02;14.20;;;10.37;;
8580;SDS011;4328;48.622;9.230;2023-01-23T06:39:30;13.80;;;10.60;;
8580;SDS011;4328;48.622;9.230;2023-01-23T06:41:58;14.37;;;10.83;;
8580;SDS011;4328;48.622;9.230;2023-01-23T06:44:24;13.23;;;10.60;;
8580;SDS011;4328;48.622;9.230;2023-01-23T06:46:51;14.20;;;11.10;;
8580;SDS011;4328;48.622;9.230;2023-01-23T06:49:17;13.17;;;10.20;;
8580;SDS011;4328;48.622;9.230;2023-01-23T06:51:44;13.70;;;10.10;;
8580;SDS011;4328;48.622;9.230;2023-01-23T06:54:10;14.33;;;10.43;;
8580;SDS011;4328;48.622;9.230;2023-01-23T06:56:38;13.37;;;10.83;;
8580;SDS011;4328;48.622;9.230;2023-01-23T06:59:05;13.50;;;10.43;;
8580;SDS011;4328;48.622;9.230;2023-01-23T07:01:31;14.40;;;10.30;;
8580;SDS011;4328;48.622;9.230;2023-01-23T07:03:58;13.47;;;10.17;;
8580;SDS011;4328;48.622;9.230;2023-01-23T07:06:24;14.20;;;10.40;;
8580;SDS011;4328;48.622;9.230;2023-01-23T07:08:50;13.33;;;10.57;;
8580;SDS011;4328;48.622;9.230;2023-01-23T07:11:17;15.17;;;10.40;;
8580;SDS011;4328;48.622;9.230;2023-01-23T07:13:45;12.30;;;9.43;;
8580;SDS011;4328;48.622;9.230;2023-01-23T07:16:11;13.50;;;10.47;;
8580;SDS011;4328;48.622;9.230;2023-01-23T07:18:37;12.53;;;9.60;;
8580;SDS011;4328;48.622;9.230;2023-01-23T07:21:04;14.77;;;10.20;;
8580;SDS011;4328;48.622;9.230;2023-01-23T07:23:31;15.93;;;10.67;;
8580;SDS011;4328;48.622;9.230;2023-01-23T07:25:58;13.80;;;9.80;;
8580;SDS011;4328;48.622;9.230;2023-01-23T07:28:24;12.73;;;10.17;;
8580;SDS011;4328;48.622;9.230;2023-01-23T07:30:52;14.30;;;10.80;;
8580;SDS011;4328;48.622;9.230;2023-01-23T07:33:18;15.23;;;10.77;;
8580;SDS011;4328;48.622;9.230;2023-01-23T07:35:45;13.93;;;10.00;;
8580;SDS011;4328;48.622;9.230;2023-01-23T07:38:11;13.33;;;9.87;;
8580;SDS011;4328;48.622;9.230;2023-01-23T07:40:37;13.93;;;9.77;;
8580;SDS011;4328;48.622;9.230;2023-01-23T07:43:06;13.53;;;9.77;;
8580;SDS011;4328;48.622;9.230;2023-01-23T07:45:33;15.97;;;10.27;;
8580;SDS011;4328;48.622;9.230;2023-01-23T07:48:01;14.50;;;9.93;;
8580;SDS011;4328;48.622;9.230;2023-01-23T07:50:27;14.90;;;10.43;;
8580;SDS011;4328;48.622;9.230;2023-01-23T07:52:53;13.47;;;10.23;;
8580;SDS011;4328;48.622;9.230;2023-01-23T07:55:20;14.17;;;10.17;;
8580;SDS011;4328;48.622;9.230;2023-01-23T07:57:46;15.07;;;10.73;;
8580;SDS011;4328;48.622;9.230;2023-01-23T08:00:13;13.80;;;10.07;;
8580;SDS011;4328;48.622;9.230;2023-01-23T08:02:39;14.23;;;10.33;;
8580;SDS011;4328;48.622;9.230;2023-01-23T08:05:07;13.83;;;10.00;;
8580;SDS011;4328;48.622;9.230;2023-01-23T08:07:34;15.07;;;10.30;;
8580;SDS011;4328;48.622;9.230;2023-01-23T08:10:00;15.00;;;10.23;;
8580;SDS011;4328;48.622;9.230;2023-01-23T08:12:26;15.50;;;10.07;;
8580;SDS011;4328;48.622;9.230;2023-01-23T08:14:53;13.17;;;9.40;;
8580;SDS011;4328;48.622;9.230;2023-01-23T08:17:19;14.50;;;10.13;;
8580;SDS011;4328;48.622;9.230;2023-01-23T08:19:46;14.13;;;10.20;;
8580;SDS011;4328;48.622;9.230;2023-01-23T08:22:13;13.97;;;9.97;;
8580;SDS011;4328;48.622;9.230;2023-01-23T08:24:40;15.23;;;9.87;;
8580;SDS011;4328;48.622;9.230;2023-01-23T08:27:06;12.47;;;10.07;;
8580;SDS011;4328;48.622;9.230;2023-01-23T08:29:32;15.23;;;10.87;;
8580;SDS011;4328;48.622;9.230;2023-01-23T08:31:59;14.73;;;10.80;;
8580;SDS011;4328;48.622;9.230;2023-01-23T08:34:25;14.23;;;10.40;;
8580;SDS011;4328;48.622;9.230;2023-01-23T08:36:52;15.40;;;10.83;;
8580;SDS011;4328;48.622;9.230;2023-01-23T08:39:19;15.50;;;10.13;;
8580;SDS011;4328;48.622;9.230;2023-01-23T08:41:46;15.47;;;10.47;;
8580;SDS011;4328;48.622;9.230;2023-01-23T08:44:12;17.30;;;11.33;;
8580;SDS011;4328;48.622;9.230;2023-01-23T08:46:39;13.80;;;10.87;;
8580;SDS011;4328;48.622;9.230;2023-01-23T08:49:05;13.83;;;10.53;;
8580;SDS011;4328;48.622;9.230;2023-01-23T08:51:31;14.00;;;11.30;;
8580;SDS011;4328;48.622;9.230;2023-01-23T08:53:58;15.07;;;10.30;;
8580;SDS011;4328;48.622;9.230;2023-01-23T08:56:25;13.90;;;10.43;;
8580;SDS011;4328;48.622;9.230;2023-01-23T08:58:52;15.10;;;10.70;;
8580;SDS011;4328;48.622;9.230;2023-01-23T09:01:19;13.20;;;10.73;;
8580;SDS011;4328;48.622;9.230;2023-01-23T09:03:46;14.20;;;10.60;;
8580;SDS011;4328;48.622;9.230;2023-01-23T09:06:13;14.03;;;10.37;;
8580;SDS011;4328;48.622;9.230;2023-01-23T09:08:40;15.63;;;10.77;;
8580;SDS011;4328;48.622;9.230;2023-01-23T09:11:07;15.03;;;11.07;;
8580;SDS011;4328;48.622;9.230;2023-01-23T09:13:35;14.70;;;10.87;;
8580;SDS011;4328;48.622;9.230;2023-01-23T09:16:01;13.40;;;10.23;;
8580;SDS011;4328;48.622;9.230;2023-01-23T09:18:28;15.33;;;10.70;;
8580;SDS011;4328;48.622;9.230;2023-01-23T09:20:55;13.50;;;10.43;;
8580;SDS011;4328;48.622;9.230;2023-01-23T09:23:22;14.77;;;10.30;;
8580;SDS011;4328;48.622;9.230;2023-01-23T09:25:48;14.03;;;10.00;;
8580;SDS011;4328;48.622;9.230;2023-01-23T09:28:15;12.77;;;9.33;;
8580;SDS011;4328;48.622;9.230;2023-01-23T09:30:42;14.30;;;9.97;;
8580;SDS011;4328;48.622;9.230;2023-01-23T09:33:09;12.23;;;9.33;;
8580;SDS011;4328;48.622;9.230;2023-01-23T09:35:35;12.97;;;9.43;;
8580;SDS011;4328;48.622;9.230;2023-01-23T09:38:02;12.30;;;9.30;;
8580;SDS011;4328;48.622;9.230;2023-01-23T09:40:31;12.83;;;9.30;;
8580;SDS011;4328;48.622;9.230;2023-01-23T09:43:00;12.03;;;8.87;;
8580;SDS011;4328;48.622;9.230;2023-01-23T09:45:28;11.87;;;8.50;;
8580;SDS011;4328;48.622;9.230;2023-01-23T09:47:57;12.03;;;8.70;;
8580;SDS011;4328;48.622;9.230;2023-01-23T09:50:28;10.90;;;8.73;;
8580;SDS011;4328;48.622;9.230;2023-01-23T09:52:57;10.73;;;8.27;;
8580;SDS011;4328;48.622;9.230;2023-01-23T09:55:29;11.90;;;8.10;;
8580;SDS011;4328;48.622;9.230;2023-01-23T09:57:59;10.70;;;8.20;;
8580;SDS011;4328;48.622;9.230;2023-01-23T10:00:28;11.07;;;8.37;;
8580;SDS011;4328;48.622;9.230;2023-01-23T10:02:57;9.87;;;7.57;;
8580;SDS011;4328;48.622;9.230;2023-01-23T10:05:27;10.03;;;8.13;;
8580;SDS011;4328;48.622;9.230;2023-01-23T10:07:58;10.17;;;7.60;;
8580;SDS011;4328;48.622;9.230;2023-01-23T10:10:32;10.50;;;7.80;;
8580;SDS011;4328;48.622;9.230;2023-01-23T10:13:03;9.43;;;7.47;;
8580;SDS011;4328;48.622;9.230;2023-01-23T10:15:34;11.70;;;8.67;;
8580;SDS011;4328;48.622;9.230;2023-01-23T10:18:08;11.17;;;7.77;;
8580;SDS011;4328;48.622;9.230;2023-01-23T10:20:42;11.23;;;8.03;;
8580;SDS011;4328;48.622;9.230;2023-01-23T10:23:11;11.03;;;7.20;;
8580;SDS011;4328;48.622;9.230;2023-01-23T10:25:42;9.13;;;7.43;;
8580;SDS011;4328;48.622;9.230;2023-01-23T10:28:16;9.43;;;7.87;;
8580;SDS011;4328;48.622;9.230;2023-01-23T10:30:45;9.20;;;7.53;;
8580;SDS011;4328;48.622;9.230;2023-01-23T10:33:15;8.87;;;7.20;;
8580;SDS011;4328;48.622;9.230;2023-01-23T10:35:43;10.07;;;7.70;;
8580;SDS011;4328;48.622;9.230;2023-01-23T10:38:16;8.80;;;7.43;;
8580;SDS011;4328;48.622;9.230;2023-01-23T10:40:48;8.63;;;7.20;;
8580;SDS011;4328;48.622;9.230;2023-01-23T10:43:32;8.83;;;6.90;;
8580;SDS011;4328;48.622;9.230;2023-01-23T10:45:58;9.80;;;7.90;;
8580;SDS011;4328;48.622;9.230;2023-01-23T10:51:30;9.13;;;7.60;;
8580;SDS011;4328;48.622;9.230;2023-01-23T10:56:50;9.97;;;7.47;;
8580;SDS011;4328;48.622;9.230;2023-01-23T10:59:19;8.97;;;7.53;;
8580;SDS011;4328;48.622;9.230;2023-01-23T11:01:53;9.50;;;7.30;;
8580;SDS011;4328;48.622;9.230;2023-01-23T11:04:20;9.43;;;7.90;;
8580;SDS011;4328;48.622;9.230;2023-01-23T11:06:59;9.10;;;6.83;;
8580;SDS011;4328;48.622;9.230;2023-01-23T11:09:26;8.43;;;6.97;;
8580;SDS011;4328;48.622;9.230;2023-01-23T11:11:59;10.60;;;8.40;;
8580;SDS011;4328;48.622;9.230;2023-01-23T11:14:25;9.90;;;7.90;;
8580;SDS011;4328;48.622;9.230;2023-01-23T11:16:58;11.07;;;7.67;;
8580;SDS011;4328;48.622;9.230;2023-01-23T11:19:25;9.70;;;7.70;;
8580;SDS011;4328;48.622;9.230;2023-01-23T11:21:52;10.90;;;7.97;;
8580;SDS011;4328;48.622;9.230;2023-01-23T11:24:30;12.00;;;8.90;;
8580;SDS011;4328;48.622;9.230;2023-01-23T11:26:58;9.73;;;8.00;;
8580;SDS011;4328;48.622;9.230;2023-01-23T11:29:25;10.50;;;8.17;;
8580;SDS011;4328;48.622;9.230;2023-01-23T11:31:52;11.03;;;8.70;;
8580;SDS011;4328;48.622;9.230;2023-01-23T11:34:22;11.57;;;8.83;;
8580;SDS011;4328;48.622;9.230;2023-01-23T11:36:50;11.30;;;8.60;;
8580;SDS011;4328;48.622;9.230;2023-01-23T11:39:24;10.70;;;8.57;;
8580;SDS011;4328;48.622;9.230;2023-01-23T11:41:55;12.23;;;9.03;;
8580;SDS011;4328;48.622;9.230;2023-01-23T11:44:22;11.63;;;9.37;;
8580;SDS011;4328;48.622;9.230;2023-01-23T11:46:53;12.80;;;9.40;;
8580;SDS011;4328;48.622;9.230;2023-01-23T11:49:23;13.13;;;9.37;;
8580;SDS011;4328;48.622;9.230;2023-01-23T11:51:56;12.97;;;9.70;;
8580;SDS011;4328;48.622;9.230;2023-01-23T11:54:39;12.90;;;9.17;;
8580;SDS011;4328;48.622;9.230;2023-01-23T11:57:08;12.63;;;9.17;;
8580;SDS011;4328;48.622;9.230;2023-01-23T11:59:41;11.70;;;9.30;;
8580;SDS011;4328;48.622;9.230;2023-01-23T12:05:07;12.73;;;9.57;;
8580;SDS011;4328;48.622;9.230;2023-01-23T12:07:39;10.73;;;8.73;;
8580;SDS011;4328;48.622;9.230;2023-01-23T12:10:15;12.07;;;9.37;;
8580;SDS011;4328;48.622;9.230;2023-01-23T12:12:49;12.27;;;9.33;;
8580;SDS011;4328;48.622;9.230;2023-01-23T12:15:18;12.70;;;8.93;;
8580;SDS011;4328;48.622;9.230;2023-01-23T12:17:48;10.80;;;9.20;;
8580;SDS011;4328;48.622;9.230;2023-01-23T12:20:22;11.27;;;9.00;;
8580;SDS011;4328;48.622;9.230;2023-01-23T12:22:54;11.70;;;9.00;;
8580;SDS011;4328;48.622;9.230;2023-01-23T12:25:22;11.53;;;9.57;;
8580;SDS011;4328;48.622;9.230;2023-01-23T12:27:56;12.83;;;8.80;;
8580;SDS011;4328;48.622;9.230;2023-01-23T12:30:27;11.87;;;9.00;;
8580;SDS011;4328;48.622;9.230;2023-01-23T12:33:04;12.60;;;9.47;;
8580;SDS011;4328;48.622;9.230;2023-01-23T12:35:39;12.17;;;8.67;;
8580;SDS011;4328;48.622;9.230;2023-01-23T12:38:09;10.53;;;9.10;;
8580;SDS011;4328;48.622;9.230;2023-01-23T12:40:39;10.93;;;8.33;;
8580;SDS011;4328;48.622;9.230;2023-01-23T12:43:10;11.73;;;9.13;;
8580;SDS011;4328;48.622;9.230;2023-01-23T12:45:39;10.77;;;8.63;;
8580;SDS011;4328;48.622;9.230;2023-01-23T12:48:08;12.20;;;8.87;;
8580;SDS011;4328;48.622;9.230;2023-01-23T12:50:39;8.93;;;7.63;;
8580;SDS011;4328;48.622;9.230;2023-01-23T12:53:08;9.97;;;8.67;;
8580;SDS011;4328;48.622;9.230;2023-01-23T12:55:35;9.80;;;8.57;;
8580;SDS011;4328;48.622;9.230;2023-01-23T12:58:03;10.00;;;8.93;;
8580;SDS011;4328;48.622;9.230;2023-01-23T13:00:34;12.67;;;10.70;;
8580;SDS011;4328;48.622;9.230;2023-01-23T13:03:08;12.40;;;9.60;;
8580;SDS011;4328;48.622;9.230;2023-01-23T13:05:42;12.03;;;8.43;;
8580;SDS011;4328;48.622;9.230;2023-01-23T13:08:14;13.93;;;10.03;;
8580;SDS011;4328;48.622;9.230;2023-01-23T13:10:53;11.57;;;9.63;;
8580;SDS011;4328;48.622;9.230;2023-01-23T13:13:39;12.10;;;8.90;;
8580;SDS011;4328;48.622;9.230;2023-01-23T13:16:09;12.40;;;9.07;;
8580;SDS011;4328;48.622;9.230;2023-01-23T13:18:37;11.70;;;8.90;;
8580;SDS011;4328;48.622;9.230;2023-01-23T13:21:17;16.83;;;10.80;;
8580;SDS011;4328;48.622;9.230;2023-01-23T13:29:47;11.70;;;9.17;;
8580;SDS011;4328;48.622;9.230;2023-01-23T13:32:20;13.93;;;9.40;;
8580;SDS011;4328;48.622;9.230;2023-01-23T13:34:47;12.90;;;9.37;;
8580;SDS011;4328;48.622;9.230;2023-01-23T13:40:13;13.10;;;9.27;;
8580;SDS011;4328;48.622;9.230;2023-01-23T13:42:40;13.17;;;9.70;;
8580;SDS011;4328;48.622;9.230;2023-01-23T13:45:13;11.90;;;9.53;;
8580;SDS011;4328;48.622;9.230;2023-01-23T13:47:42;12.20;;;9.47;;
8580;SDS011;4328;48.622;9.230;2023-01-23T13:50:29;11.47;;;8.93;;
8580;SDS011;4328;48.622;9.230;2023-01-23T13:52:59;11.57;;;8.67;;
8580;SDS011;4328;48.622;9.230;2023-01-23T13:55:43;12.97;;;9.30;;
8580;SDS011;4328;48.622;9.230;2023-01-23T13:58:28;11.00;;;8.53;;
8580;SDS011;4328;48.622;9.230;2023-01-23T14:01:00;12.13;;;9.17;;
8580;SDS011;4328;48.622;9.230;2023-01-23T14:03:48;11.13;;;8.30;;
8580;SDS011;4328;48.622;9.230;2023-01-23T14:06:34;11.97;;;8.77;;
8580;SDS011;4328;48.622;9.230;2023-01-23T14:09:01;11.93;;;8.73;;
8580;SDS011;4328;48.622;9.230;2023-01-23T14:11:30;11.17;;;9.17;;
8580;SDS011;4328;48.622;9.230;2023-01-23T14:13:59;12.63;;;9.30;;
8580;SDS011;4328;48.622;9.230;2023-01-23T14:16:40;9.93;;;8.13;;
8580;SDS011;4328;48.622;9.230;2023-01-23T14:19:14;11.07;;;8.53;;
8580;SDS011;4328;48.622;9.230;2023-01-23T14:21:47;11.57;;;8.30;;
8580;SDS011;4328;48.622;9.230;2023-01-23T14:24:19;12.37;;;8.67;;
8580;SDS011;4328;48.622;9.230;2023-01-23T14:26:47;11.70;;;8.57;;
8580;SDS011;4328;48.622;9.230;2023-01-23T14:29:17;11.63;;;8.63;;
8580;SDS011;4328;48.622;9.230;2023-01-23T14:31:44;10.97;;;7.73;;
8580;SDS011;4328;48.622;9.230;2023-01-23T14:34:14;12.97;;;8.53;;
8580;SDS011;4328;48.622;9.230;2023-01-23T14:36:41;10.57;;;7.83;;
8580;SDS011;4328;48.622;9.230;2023-01-23T14:39:10;11.17;;;8.10;;
8580;SDS011;4328;48.622;9.230;2023-01-23T14:41:40;11.47;;;8.10;;
8580;SDS011;4328;48.622;9.230;2023-01-23T14:44:08;10.87;;;7.90;;
8580;SDS011;4328;48.622;9.230;2023-01-23T14:46:40;10.43;;;7.70;;
8580;SDS011;4328;48.622;9.230;2023-01-23T14:49:08;9.93;;;8.00;;
8580;SDS011;4328;48.622;9.230;2023-01-23T14:51:36;10.20;;;8.23;;
8580;SDS011;4328;48.622;9.230;2023-01-23T14:54:03;10.20;;;7.63;;
8580;SDS011;4328;48.622;9.230;2023-01-23T14:56:31;11.00;;;7.90;;
8580;SDS011;4328;48.622;9.230;2023-01-23T14:58:59;10.50;;;7.90;;
8580;SDS011;4328;48.622;9.230;2023-01-23T15:01:26;10.40;;;8.00;;
8580;SDS011;4328;48.622;9.230;2023-01-23T15:04:00;9.50;;;7.37;;
8580;SDS011;4328;48.622;9.230;2023-01-23T15:06:27;10.17;;;7.47;;
8580;SDS011;4328;48.622;9.230;2023-01-23T15:09:03;9.37;;;7.13;;
8580;SDS011;4328;48.622;9.230;2023-01-23T15:11:30;9.67;;;7.83;;
8580;SDS011;4328;48.622;9.230;2023-01-23T15:13:57;8.90;;;7.10;;
8580;SDS011;4328;48.622;9.230;2023-01-23T15:16:27;8.60;;;7.07;;
8580;SDS011;4328;48.622;9.230;2023-01-23T15:18:57;8.33;;;7.23;;
8580;SDS011;4328;48.622;9.230;2023-01-23T15:21:27;9.03;;;7.67;;
8580;SDS011;4328;48.622;9.230;2023-01-23T15:23:59;9.73;;;7.50;;